Time;durP1;ratioP1;P1;durP2;ratioP2;P2;SDS_P1;SDS_P2;PMS_P1;PMS_P2;Temp;Humidity;BMP_temperature;BMP_pressure;BME280_temperature;BME280_humidity;BME280_pressure;Samples;Min_cycle;Max_cycle;Signal;HPM_P1;HPM_P2
2022/12/30 00:02:23;;;;;;;8.07;2.40;;;23.90;99.90;;;;;;5033697;28;20491;-85
2022/12/30 00:04:54;;;;;;;8.32;2.17;;;23.90;99.90;;;;;;5037135;28;20283;-85
2022/12/30 00:07:25;;;;;;;13.80;2.90;;;23.90;99.90;;;;;;5040333;28;20227;-82
2022/12/30 00:09:56;;;;;;;13.15;2.63;;;23.90;99.90;;;;;;5040755;28;20193;-84
2022/12/30 00:35:03;;;;;;;8.57;2.40;;;24.40;99.90;;;;;;5031034;28;20193;-84
2022/12/30 00:37:33;;;;;;;11.82;2.30;;;24.40;99.90;;;;;;5014741;28;20218;-83
2022/12/30 00:40:05;;;;;;;8.88;2.10;;;24.40;99.90;;;;;;5028190;28;20208;-84
2022/12/30 00:45:25;;;;;;;9.30;2.13;;;24.40;99.90;;;;;;5033017;28;20248;-84
2022/12/30 00:47:56;;;;;;;7.00;1.88;;;24.50;99.90;;;;;;5033002;28;20292;-84
2022/12/30 00:56:12;;;;;;;8.90;2.22;;;24.90;99.90;;;;;;5033396;28;20339;-84
2022/12/30 00:58:43;;;;;;;10.85;2.30;;;25.00;99.90;;;;;;5020700;28;20204;-84
2022/12/30 01:01:16;;;;;;;9.48;2.20;;;25.10;99.90;;;;;;5026111;28;20218;-85
2022/12/30 01:03:47;;;;;;;8.00;1.92;;;25.20;99.90;;;;;;5022853;28;20308;-84
2022/12/30 01:06:17;;;;;;;9.13;2.10;;;25.10;99.90;;;;;;5030659;28;20719;-83
2022/12/30 01:08:48;;;;;;;9.27;1.88;;;25.00;99.90;;;;;;5029305;28;20197;-85
2022/12/30 01:11:19;;;;;;;8.18;2.28;;;25.00;99.90;;;;;;5030308;28;20221;-84
2022/12/30 01:13:50;;;;;;;7.85;1.88;;;25.00;99.90;;;;;;5023429;28;20200;-83
2022/12/30 01:16:22;;;;;;;10.93;2.50;;;25.00;99.90;;;;;;5030256;28;20563;-84
2022/12/30 01:18:53;;;;;;;7.88;1.80;;;24.90;99.90;;;;;;5026246;28;20194;-84
2022/12/30 01:21:24;;;;;;;6.88;1.83;;;24.90;99.90;;;;;;5024696;28;20445;-84
2022/12/30 01:23:57;;;;;;;8.23;2.03;;;24.90;99.90;;;;;;5024863;28;20241;-84
2022/12/30 01:26:29;;;;;;;8.15;2.17;;;24.90;99.90;;;;;;5026537;28;20197;-84
2022/12/30 01:29:03;;;;;;;6.18;1.92;;;24.90;99.90;;;;;;5016684;28;20560;-84
2022/12/30 01:31:35;;;;;;;8.60;2.03;;;24.90;99.90;;;;;;5024710;28;20349;-84
2022/12/30 01:34:06;;;;;;;11.35;2.10;;;24.90;99.90;;;;;;5032776;28;20201;-84
2022/12/30 01:36:39;;;;;;;7.07;2.08;;;24.90;99.90;;;;;;5028257;28;20221;-83
2022/12/30 01:39:11;;;;;;;6.93;1.80;;;24.90;99.90;;;;;;5015796;28;20296;-84
2022/12/30 01:41:42;;;;;;;6.50;1.88;;;24.80;99.90;;;;;;5014639;28;20482;-82
2022/12/30 01:44:44;;;;;;;6.05;1.90;;;24.90;99.90;;;;;;5025200;28;20231;-82
2022/12/30 01:47:23;;;;;;;8.95;2.03;;;25.00;99.90;;;;;;5029677;28;20231;-86
2022/12/30 01:49:57;;;;;;;9.07;2.08;;;25.00;99.90;;;;;;5027814;28;20195;-85
2022/12/30 01:52:29;;;;;;;9.43;2.05;;;24.90;99.90;;;;;;5030604;28;20207;-86
2022/12/30 01:55:05;;;;;;;9.63;2.22;;;24.80;99.90;;;;;;5024221;28;20209;-86
2022/12/30 01:57:37;;;;;;;10.13;2.13;;;24.70;99.90;;;;;;5025950;28;20628;-86
2022/12/30 02:00:10;;;;;;;9.25;2.13;;;24.80;99.90;;;;;;5020639;28;20661;-86
2022/12/30 02:02:43;;;;;;;8.82;2.13;;;24.90;99.90;;;;;;5022975;28;20288;-86
2022/12/30 02:05:15;;;;;;;10.38;2.28;;;24.80;99.90;;;;;;5022423;28;20206;-85
2022/12/30 02:07:51;;;;;;;9.32;2.05;;;24.90;99.90;;;;;;5034951;28;20200;-85
2022/12/30 02:10:24;;;;;;;7.65;1.95;;;24.80;99.90;;;;;;5045887;28;20208;-85
2022/12/30 02:12:55;;;;;;;10.02;2.22;;;24.80;99.90;;;;;;5046850;28;20198;-86
2022/12/30 02:15:28;;;;;;;8.23;1.92;;;24.80;99.90;;;;;;5039706;28;20309;-85
2022/12/30 02:18:07;;;;;;;10.85;2.40;;;24.90;99.90;;;;;;5031847;28;20572;-85
2022/12/30 02:21:13;;;;;;;6.75;1.92;;;24.90;99.90;;;;;;5031082;28;20280;-87
2022/12/30 02:24:24;;;;;;;10.15;2.08;;;24.90;99.90;;;;;;5018631;28;20271;-85
2022/12/30 02:27:15;;;;;;;8.13;1.55;;;25.00;99.90;;;;;;5005654;28;20752;-85
2022/12/30 02:30:08;;;;;;;10.60;2.15;;;25.10;99.90;;;;;;5022084;28;20231;-86
2022/12/30 02:33:03;;;;;;;8.70;1.80;;;25.10;99.90;;;;;;5038105;28;20284;-87
2022/12/30 02:35:41;;;;;;;8.80;1.92;;;25.30;99.90;;;;;;5029274;28;20252;-86
2022/12/30 02:38:22;;;;;;;12.50;2.55;;;25.20;99.90;;;;;;5018956;28;20222;-87
2022/12/30 02:46:46;;;;;;;8.05;1.90;;;25.30;99.90;;;;;;5021885;28;20203;-87
2022/12/30 02:49:21;;;;;;;10.63;2.05;;;25.40;99.90;;;;;;5031670;28;20254;-88
2022/12/30 02:54:40;;;;;;;6.70;1.95;;;25.30;99.90;;;;;;5021753;28;20264;-86
2022/12/30 02:57:27;;;;;;;10.15;2.10;;;25.40;99.90;;;;;;5030064;28;20221;-87
2022/12/30 03:06:07;;;;;;;8.18;2.00;;;25.50;99.90;;;;;;5024305;28;20275;-89
2022/12/30 03:08:43;;;;;;;8.65;1.77;;;25.50;99.90;;;;;;5038728;28;20308;-89
2022/12/30 03:11:16;;;;;;;8.43;1.80;;;25.50;99.90;;;;;;5035380;28;20276;-89
2022/12/30 03:14:03;;;;;;;9.50;1.70;;;25.50;99.90;;;;;;5027797;28;20225;-89
2022/12/30 03:16:37;;;;;;;6.45;2.00;;;25.50;99.90;;;;;;5031818;28;20248;-89
2022/12/30 03:19:10;;;;;;;6.45;1.85;;;25.40;99.90;;;;;;5030453;28;20275;-90
2022/12/30 03:21:45;;;;;;;9.27;1.90;;;25.30;99.90;;;;;;5020727;28;20648;-90
2022/12/30 03:27:08;;;;;;;7.43;1.70;;;25.30;99.90;;;;;;5015582;28;20241;-87
2022/12/30 03:29:42;;;;;;;7.55;1.75;;;25.40;99.90;;;;;;5024185;28;20217;-86
2022/12/30 03:32:17;;;;;;;8.48;1.98;;;25.40;99.90;;;;;;5014023;28;20220;-88
2022/12/30 03:34:49;;;;;;;6.03;1.80;;;25.40;99.90;;;;;;5023526;28;20224;-88
2022/12/30 03:37:27;;;;;;;5.43;1.63;;;25.40;99.90;;;;;;5025738;28;20256;-86
2022/12/30 03:40:04;;;;;;;10.07;2.10;;;25.50;99.90;;;;;;5019505;28;20670;-86
2022/12/30 03:42:35;;;;;;;7.78;1.83;;;25.60;99.90;;;;;;5021671;28;20213;-88
2022/12/30 03:45:07;;;;;;;8.40;1.63;;;25.70;99.90;;;;;;5020694;28;20213;-85
2022/12/30 03:47:38;;;;;;;11.98;1.95;;;25.60;99.90;;;;;;5027566;28;20312;-87
2022/12/30 03:50:09;;;;;;;6.80;1.65;;;25.70;99.90;;;;;;5030291;28;20284;-86
2022/12/30 03:52:42;;;;;;;5.38;1.67;;;25.60;99.90;;;;;;5022247;28;20245;-85
2022/12/30 03:55:13;;;;;;;5.32;1.40;;;25.60;99.90;;;;;;5022464;28;20351;-86
2022/12/30 03:57:44;;;;;;;9.65;1.70;;;25.60;99.90;;;;;;5019811;28;20638;-89
2022/12/30 04:00:15;;;;;;;8.00;1.88;;;25.70;99.90;;;;;;5027745;28;20252;-86
2022/12/30 04:02:49;;;;;;;7.57;1.70;;;25.70;99.90;;;;;;5019258;28;20217;-87
2022/12/30 04:05:20;;;;;;;6.00;1.60;;;25.70;99.90;;;;;;5023412;28;20214;-88
2022/12/30 04:07:53;;;;;;;7.47;1.77;;;25.70;99.90;;;;;;5034422;28;20198;-90
2022/12/30 04:10:23;;;;;;;7.65;1.88;;;25.60;99.90;;;;;;5034728;28;20249;-91
2022/12/30 04:12:54;;;;;;;7.70;1.75;;;25.60;99.90;;;;;;5029326;28;20320;-91
2022/12/30 04:15:25;;;;;;;11.13;2.08;;;25.50;99.90;;;;;;5028464;28;20591;-92
2022/12/30 04:17:56;;;;;;;5.30;1.38;;;25.60;99.90;;;;;;5034836;28;20221;-91
2022/12/30 04:20:27;;;;;;;10.52;1.75;;;25.50;99.90;;;;;;5041371;28;20223;-91
2022/12/30 04:23:02;;;;;;;6.93;1.65;;;25.50;99.90;;;;;;5025157;28;20226;-88
2022/12/30 04:25:33;;;;;;;7.15;1.90;;;25.60;99.90;;;;;;5034324;28;20307;-90
2022/12/30 04:28:03;;;;;;;8.05;1.95;;;25.70;99.90;;;;;;5028809;28;20223;-91
2022/12/30 04:30:34;;;;;;;7.13;1.98;;;26.00;99.90;;;;;;5025095;28;20235;-90
2022/12/30 04:33:05;;;;;;;5.45;1.58;;;26.30;99.90;;;;;;5044357;28;20201;-90
2022/12/30 04:35:36;;;;;;;6.22;1.65;;;26.50;99.90;;;;;;5050173;28;20189;-91
2022/12/30 04:38:09;;;;;;;7.07;1.98;;;26.50;99.90;;;;;;5049853;28;20283;-91
2022/12/30 04:40:42;;;;;;;6.32;1.50;;;26.50;99.90;;;;;;5042019;28;20292;-91
2022/12/30 04:43:14;;;;;;;9.52;1.98;;;26.60;99.90;;;;;;5026766;28;20736;-91
2022/12/30 04:45:46;;;;;;;9.82;1.70;;;26.60;99.90;;;;;;5035253;28;20285;-92
2022/12/30 04:48:17;;;;;;;10.25;1.73;;;26.50;99.90;;;;;;5029774;28;20684;-90
2022/12/30 04:50:51;;;;;;;7.38;1.85;;;26.50;99.90;;;;;;5025901;28;20203;-91
2022/12/30 04:53:24;;;;;;;7.90;2.00;;;26.40;99.90;;;;;;5030383;28;20229;-88
2022/12/30 04:55:57;;;;;;;8.98;2.00;;;26.30;99.90;;;;;;5029304;28;20276;-92
2022/12/30 04:58:28;;;;;;;7.30;1.65;;;26.20;99.90;;;;;;5033351;28;20560;-90
2022/12/30 05:00:58;;;;;;;12.52;1.90;;;26.10;99.90;;;;;;5021313;28;20265;-88
2022/12/30 05:03:29;;;;;;;8.07;2.17;;;25.90;99.90;;;;;;5020997;28;20308;-88
2022/12/30 05:06:03;;;;;;;5.93;1.73;;;26.00;99.90;;;;;;5037034;28;20208;-88
2022/12/30 05:10:24;;;;;;;10.38;1.88;;;25.90;99.90;;;;;;5168735;27;20396;-89
2022/12/30 05:12:55;;;;;;;5.80;1.73;;;25.90;99.90;;;;;;5149319;27;20250;-92
2022/12/30 05:15:27;;;;;;;8.02;2.15;;;26.00;99.90;;;;;;5143314;27;20189;-90
2022/12/30 05:17:57;;;;;;;6.78;1.55;;;26.10;99.90;;;;;;5146520;27;20196;-90
2022/12/30 05:20:28;;;;;;;6.97;1.83;;;26.20;99.90;;;;;;5135006;27;20281;-88
2022/12/30 05:22:59;;;;;;;7.82;1.77;;;26.20;99.90;;;;;;5140695;27;20193;-88
2022/12/30 05:28:18;;;;;;;9.98;2.10;;;26.50;99.90;;;;;;5136819;27;20224;-87
2022/12/30 05:30:49;;;;;;;9.98;2.03;;;26.60;99.90;;;;;;5132040;27;20284;-86
2022/12/30 05:33:19;;;;;;;5.90;1.70;;;26.70;99.90;;;;;;5130303;27;20200;-86
2022/12/30 05:35:52;;;;;;;9.57;2.00;;;26.70;99.90;;;;;;5147509;27;20203;-87
2022/12/30 05:38:22;;;;;;;5.43;1.73;;;26.70;99.90;;;;;;5150298;27;20284;-86
2022/12/30 05:40:56;;;;;;;7.15;1.80;;;26.70;99.90;;;;;;5143919;27;20288;-86
2022/12/30 05:43:27;;;;;;;9.23;1.88;;;26.70;99.90;;;;;;5141820;27;20253;-86
2022/12/30 05:45:58;;;;;;;8.68;1.98;;;26.50;99.90;;;;;;5145954;27;20202;-86
2022/12/30 05:48:29;;;;;;;9.50;1.92;;;26.40;99.90;;;;;;5150345;27;20213;-86
2022/12/30 05:51:01;;;;;;;7.28;1.77;;;26.40;99.90;;;;;;5150202;27;20193;-85
2022/12/30 05:53:32;;;;;;;8.48;1.98;;;26.60;99.90;;;;;;5145636;27;20217;-89
2022/12/30 05:56:04;;;;;;;8.40;2.10;;;26.70;99.90;;;;;;5149155;27;20212;-90
2022/12/30 05:58:36;;;;;;;6.43;1.90;;;26.80;99.90;;;;;;5143362;27;20201;-90
2022/12/30 06:01:07;;;;;;;7.70;2.13;;;27.00;99.90;;;;;;5152856;27;20276;-89
2022/12/30 06:03:37;;;;;;;6.88;1.60;;;27.30;99.90;;;;;;5145455;27;20248;-90
2022/12/30 06:06:10;;;;;;;7.78;1.75;;;27.20;99.90;;;;;;5151651;27;20201;-90
2022/12/30 06:08:41;;;;;;;8.10;1.88;;;27.10;99.90;;;;;;5158995;27;20248;-89
2022/12/30 06:11:14;;;;;;;13.38;2.15;;;26.80;99.90;;;;;;5157822;27;20220;-89
2022/12/30 06:13:45;;;;;;;10.40;2.03;;;26.60;99.90;;;;;;5141664;27;20566;-88
2022/12/30 06:16:16;;;;;;;9.18;1.95;;;26.30;99.90;;;;;;5144143;27;20834;-89
2022/12/30 06:18:47;;;;;;;9.00;2.20;;;26.20;99.90;;;;;;5144738;27;20194;-87
2022/12/30 06:21:18;;;;;;;13.30;2.30;;;25.90;99.90;;;;;;5134753;27;20206;-87
2022/12/30 06:23:49;;;;;;;8.65;2.25;;;25.80;99.90;;;;;;5116970;28;20201;-88
2022/12/30 06:26:23;;;;;;;11.30;2.35;;;25.80;99.90;;;;;;5119795;27;20281;-87
2022/12/30 06:28:54;;;;;;;9.38;2.40;;;25.60;99.90;;;;;;5149769;27;20209;-88
2022/12/30 06:31:26;;;;;;;8.43;2.15;;;25.50;99.90;;;;;;5149363;27;20221;-87
2022/12/30 06:33:57;;;;;;;7.68;2.10;;;25.50;99.90;;;;;;5137875;27;20629;-88
2022/12/30 06:36:28;;;;;;;6.90;1.83;;;25.50;99.90;;;;;;5133898;27;20194;-88
2022/12/30 06:38:58;;;;;;;5.25;1.67;;;25.40;99.90;;;;;;5133010;27;20280;-88
2022/12/30 06:41:31;;;;;;;9.20;1.95;;;25.50;99.90;;;;;;5136090;27;20186;-87
2022/12/30 06:44:02;;;;;;;6.68;1.88;;;25.40;99.90;;;;;;5122034;27;20273;-87
2022/12/30 06:46:32;;;;;;;9.13;2.05;;;25.30;99.90;;;;;;5123635;27;20190;-88
2022/12/30 06:49:03;;;;;;;8.65;2.10;;;25.40;99.90;;;;;;5136155;27;20755;-88
2022/12/30 06:51:34;;;;;;;9.57;2.20;;;25.30;99.90;;;;;;5134793;27;20221;-86
2022/12/30 06:54:05;;;;;;;7.18;1.73;;;25.30;99.90;;;;;;5134341;27;20610;-88
2022/12/30 06:56:38;;;;;;;6.72;1.88;;;25.20;99.90;;;;;;5120503;27;20269;-87
2022/12/30 06:59:09;;;;;;;7.05;1.90;;;25.20;99.90;;;;;;5133881;27;20193;-87
2022/12/30 07:01:39;;;;;;;9.45;2.30;;;25.20;99.90;;;;;;5133839;27;20537;-87
2022/12/30 07:04:11;;;;;;;8.55;2.10;;;25.30;99.90;;;;;;5137151;27;20217;-87
2022/12/30 07:06:42;;;;;;;10.40;2.03;;;25.20;99.90;;;;;;5132704;27;20226;-87
2022/12/30 07:09:13;;;;;;;12.38;1.80;;;25.10;99.90;;;;;;5158247;27;20294;-87
2022/12/30 07:11:46;;;;;;;7.70;1.75;;;25.10;99.90;;;;;;5146688;27;20194;-87
2022/12/30 07:14:17;;;;;;;7.53;1.83;;;25.00;99.90;;;;;;5134512;27;20200;-89
2022/12/30 07:16:48;;;;;;;7.43;1.83;;;25.00;99.90;;;;;;5114325;28;20226;-88
2022/12/30 07:19:18;;;;;;;10.52;2.10;;;25.00;99.90;;;;;;5117578;27;20210;-87
2022/12/30 07:21:49;;;;;;;9.02;2.30;;;25.00;99.90;;;;;;5125072;27;20630;-86
2022/12/30 07:24:20;;;;;;;7.45;2.28;;;25.00;99.90;;;;;;5120144;27;20740;-85
2022/12/30 07:26:54;;;;;;;10.77;2.45;;;24.90;99.90;;;;;;5127386;27;20211;-86
2022/12/30 07:29:26;;;;;;;11.32;2.03;;;25.00;99.90;;;;;;5122426;27;20282;-87
2022/12/30 07:31:57;;;;;;;7.80;1.98;;;24.90;99.90;;;;;;5130710;27;20286;-87
2022/12/30 07:34:27;;;;;;;9.38;2.10;;;24.80;99.90;;;;;;5135205;27;20648;-87
2022/12/30 07:36:59;;;;;;;9.05;2.20;;;24.80;99.90;;;;;;5131616;27;20190;-87
2022/12/30 07:39:29;;;;;;;10.48;2.40;;;24.70;99.90;;;;;;5133128;27;20672;-87
2022/12/30 07:42:02;;;;;;;10.10;2.38;;;24.50;99.90;;;;;;5131810;27;20217;-87
2022/12/30 07:44:33;;;;;;;8.70;2.20;;;24.50;99.90;;;;;;5124889;27;20197;-86
2022/12/30 07:47:04;;;;;;;10.00;2.25;;;24.50;99.90;;;;;;5134287;27;20281;-89
2022/12/30 07:49:35;;;;;;;7.55;1.92;;;24.50;99.90;;;;;;5132692;27;20218;-88
2022/12/30 07:52:07;;;;;;;8.15;2.35;;;24.50;99.90;;;;;;5113903;28;20309;-87
2022/12/30 07:54:38;;;;;;;13.30;2.35;;;24.60;99.90;;;;;;5124088;27;20644;-88
2022/12/30 07:57:11;;;;;;;10.80;2.30;;;24.60;99.90;;;;;;5128536;27;20281;-88
2022/12/30 07:59:42;;;;;;;7.82;2.10;;;24.60;99.90;;;;;;5131110;27;20221;-87
2022/12/30 08:02:14;;;;;;;10.90;2.50;;;24.70;99.90;;;;;;5123046;27;20207;-88
2022/12/30 08:04:45;;;;;;;8.90;2.30;;;24.60;99.90;;;;;;5132291;27;20930;-88
2022/12/30 08:07:18;;;;;;;11.73;2.65;;;24.60;99.90;;;;;;5133692;27;20575;-88
2022/12/30 08:09:49;;;;;;;8.43;2.25;;;24.60;99.90;;;;;;5134896;27;20233;-88
2022/12/30 08:12:25;;;;;;;10.32;2.30;;;24.50;99.90;;;;;;5153320;27;20198;-88
2022/12/30 08:14:56;;;;;;;11.27;2.22;;;24.50;99.90;;;;;;5131179;27;20200;-88
2022/12/30 08:17:27;;;;;;;10.40;2.42;;;24.50;99.90;;;;;;5113822;28;20226;-88
2022/12/30 08:19:58;;;;;;;8.02;2.20;;;24.50;99.90;;;;;;5133300;27;20280;-87
2022/12/30 08:22:28;;;;;;;12.30;2.42;;;24.50;99.90;;;;;;5117373;27;20280;-86
2022/12/30 08:24:59;;;;;;;9.00;2.50;;;24.40;99.90;;;;;;5131641;27;20635;-87
2022/12/30 08:27:34;;;;;;;11.88;2.10;;;24.30;99.90;;;;;;5138314;27;20307;-86
2022/12/30 08:30:04;;;;;;;11.73;2.30;;;24.40;99.90;;;;;;5127675;27;20286;-87
2022/12/30 08:32:35;;;;;;;7.90;1.85;;;24.30;99.90;;;;;;5132760;27;20289;-87
2022/12/30 08:35:07;;;;;;;8.25;2.30;;;24.30;99.90;;;;;;5133137;27;20190;-87
2022/12/30 08:37:40;;;;;;;8.55;1.92;;;24.30;99.90;;;;;;5110768;27;20286;-86
2022/12/30 08:40:13;;;;;;;10.10;2.10;;;24.30;99.90;;;;;;5124007;27;20190;-88
2022/12/30 08:42:46;;;;;;;10.73;2.55;;;24.30;99.90;;;;;;5132689;27;20190;-88
2022/12/30 08:45:17;;;;;;;7.22;1.85;;;24.20;99.90;;;;;;5117770;27;20700;-87
2022/12/30 08:47:48;;;;;;;10.02;2.10;;;24.20;99.90;;;;;;5105092;27;20209;-87
2022/12/30 08:50:19;;;;;;;10.18;2.08;;;24.10;99.90;;;;;;5105225;27;20221;-89
2022/12/30 08:52:50;;;;;;;9.70;2.17;;;24.00;99.90;;;;;;5106679;27;20754;-88
2022/12/30 08:55:21;;;;;;;10.43;2.10;;;23.90;99.90;;;;;;5106996;27;20195;-88
2022/12/30 08:57:54;;;;;;;10.70;3.20;;;23.90;99.90;;;;;;5110291;27;20202;-87
2022/12/30 09:00:27;;;;;;;10.82;3.22;;;23.90;99.90;;;;;;5109433;27;20248;-88
2022/12/30 09:02:57;;;;;;;9.98;2.50;;;23.80;99.90;;;;;;5125329;27;20568;-89
2022/12/30 09:05:28;;;;;;;12.85;2.40;;;23.80;99.90;;;;;;5132694;27;20271;-89
2022/12/30 09:07:59;;;;;;;12.77;2.45;;;23.80;99.90;;;;;;5130562;27;20685;-89
2022/12/30 09:10:30;;;;;;;8.43;2.20;;;23.80;99.90;;;;;;5125638;27;20255;-88
2022/12/30 09:13:03;;;;;;;9.05;2.17;;;23.70;99.90;;;;;;5153864;27;20246;-87
2022/12/30 09:15:33;;;;;;;11.35;2.65;;;23.70;99.90;;;;;;5131066;27;20296;-88
2022/12/30 09:18:04;;;;;;;8.20;1.95;;;23.70;99.90;;;;;;5117322;28;20194;-89
2022/12/30 09:20:35;;;;;;;9.13;2.33;;;23.60;99.90;;;;;;5127861;27;20606;-89
2022/12/30 09:23:06;;;;;;;11.68;2.22;;;23.60;99.90;;;;;;5114177;28;20289;-89
2022/12/30 09:25:37;;;;;;;7.78;1.95;;;23.60;99.90;;;;;;5121691;28;20200;-88
2022/12/30 09:28:09;;;;;;;11.13;2.30;;;23.60;99.90;;;;;;5128962;27;20190;-88
2022/12/30 09:30:40;;;;;;;11.32;2.38;;;23.50;99.90;;;;;;5126797;28;20309;-86
2022/12/30 09:33:12;;;;;;;8.65;2.15;;;23.50;99.90;;;;;;5131944;27;20624;-87
2022/12/30 09:35:43;;;;;;;9.68;2.20;;;23.40;99.90;;;;;;5130377;28;20197;-87
2022/12/30 09:38:13;;;;;;;11.38;2.33;;;23.40;99.90;;;;;;5125468;27;20195;-88
2022/12/30 09:40:52;;;;;;;9.35;2.45;;;23.40;99.90;;;;;;5132300;27;20186;-88
2022/12/30 09:43:31;;;;;;;9.02;1.90;;;23.40;99.90;;;;;;5125581;28;20294;-93
2022/12/30 09:46:34;;;;;;;11.45;2.50;;;23.40;99.90;;;;;;5143533;28;20214;-87
2022/12/30 09:49:06;;;;;;;7.93;2.15;;;23.40;99.90;;;;;;5083580;28;20707;-87
2022/12/30 09:51:39;;;;;;;9.18;1.98;;;23.40;99.90;;;;;;5123389;28;20222;-88
2022/12/30 09:54:15;;;;;;;7.53;2.08;;;23.40;99.90;;;;;;5131982;27;20198;-86
2022/12/30 09:56:48;;;;;;;12.55;2.40;;;23.40;99.90;;;;;;5132093;27;20272;-88
2022/12/30 09:59:26;;;;;;;8.80;2.40;;;23.40;99.90;;;;;;5130647;27;20194;-87
2022/12/30 10:02:06;;;;;;;10.27;2.05;;;23.30;99.90;;;;;;5132790;27;20192;-88
2022/12/30 10:04:38;;;;;;;8.25;1.75;;;23.40;99.90;;;;;;5133656;27;20656;-87
2022/12/30 10:07:14;;;;;;;8.95;2.00;;;23.40;99.90;;;;;;5131201;27;20281;-88
2022/12/30 10:09:52;;;;;;;9.38;2.00;;;23.40;99.90;;;;;;5132574;27;20233;-88
2022/12/30 10:12:46;;;;;;;12.60;2.30;;;23.30;99.90;;;;;;5139166;27;20194;-87
2022/12/30 10:15:33;;;;;;;10.63;2.03;;;23.30;99.90;;;;;;5137492;27;20610;-88
2022/12/30 10:18:36;;;;;;;8.18;2.10;;;23.30;99.90;;;;;;5123732;27;20199;-88
2022/12/30 10:21:21;;;;;;;11.73;2.50;;;23.30;99.90;;;;;;5125140;27;20218;-87
2022/12/30 10:24:06;;;;;;;11.13;2.25;;;23.20;99.90;;;;;;5123819;27;20218;-87
2022/12/30 10:26:43;;;;;;;9.93;2.28;;;23.20;99.90;;;;;;5130202;27;20262;-88
2022/12/30 10:29:19;;;;;;;7.93;1.88;;;23.10;99.90;;;;;;5118845;27;20190;-87
2022/12/30 10:31:54;;;;;;;6.22;1.98;;;23.10;99.90;;;;;;5132965;27;20217;-88
2022/12/30 10:34:27;;;;;;;10.90;2.30;;;23.10;99.90;;;;;;5128220;27;20652;-88
2022/12/30 10:37:04;;;;;;;10.40;2.40;;;23.10;99.90;;;;;;5134535;27;20186;-89
2022/12/30 10:39:37;;;;;;;5.45;1.83;;;23.10;99.90;;;;;;5129124;27;20254;-88
2022/12/30 10:42:35;;;;;;;9.02;1.88;;;23.10;99.90;;;;;;5128014;27;20187;-89
2022/12/30 10:45:27;;;;;;;10.93;2.45;;;23.10;99.90;;;;;;5115308;27;20195;-88
2022/12/30 10:48:10;;;;;;;8.00;1.83;;;23.10;99.90;;;;;;5130135;27;20709;-87
2022/12/30 10:50:43;;;;;;;8.63;2.00;;;23.00;99.90;;;;;;5141695;27;20236;-88
2022/12/30 10:53:19;;;;;;;8.57;1.75;;;23.10;99.90;;;;;;5145428;27;20281;-87
2022/12/30 10:55:51;;;;;;;7.70;2.10;;;23.10;99.90;;;;;;5134951;27;20263;-86
2022/12/30 10:58:29;;;;;;;8.77;1.92;;;23.10;99.90;;;;;;5131767;27;20254;-87
2022/12/30 11:01:02;;;;;;;11.30;2.10;;;23.10;99.90;;;;;;5134593;27;20570;-87
2022/12/30 11:03:44;;;;;;;9.18;2.28;;;23.10;99.90;;;;;;5122028;27;20190;-88
2022/12/30 11:06:24;;;;;;;8.93;2.13;;;23.10;99.90;;;;;;5133775;27;20242;-87
2022/12/30 11:08:56;;;;;;;8.73;2.22;;;23.10;99.90;;;;;;5133132;27;20304;-87
2022/12/30 11:14:42;;;;;;;9.75;2.42;;;23.10;99.90;;;;;;5133171;27;20466;-87
2022/12/30 11:17:24;;;;;;;8.48;2.60;;;23.00;99.90;;;;;;5122065;27;20201;-86
2022/12/30 11:20:00;;;;;;;9.00;1.90;;;23.00;99.90;;;;;;5116251;27;20562;-87
2022/12/30 11:22:32;;;;;;;11.73;2.72;;;23.00;99.90;;;;;;5119955;27;20200;-86
2022/12/30 11:25:06;;;;;;;11.90;2.80;;;23.10;99.90;;;;;;5112264;27;20600;-85
2022/12/30 11:27:46;;;;;;;8.25;2.40;;;23.10;99.90;;;;;;5114699;27;20222;-87
2022/12/30 11:30:28;;;;;;;9.65;2.58;;;23.00;99.90;;;;;;5114951;27;20228;-86
2022/12/30 11:33:01;;;;;;;13.10;2.75;;;23.00;99.90;;;;;;5126464;27;20195;-87
2022/12/30 11:35:42;;;;;;;10.48;2.55;;;22.90;99.90;;;;;;5119554;27;20190;-86
2022/12/30 11:38:32;;;;;;;13.00;2.85;;;22.90;99.90;;;;;;5130235;27;20319;-86
2022/12/30 11:41:25;;;;;;;11.13;2.25;;;22.80;99.90;;;;;;5133040;27;20190;-88
2022/12/30 11:44:16;;;;;;;8.25;2.40;;;22.80;99.90;;;;;;5125609;27;20301;-83
2022/12/30 11:46:50;;;;;;;11.80;2.38;;;22.80;99.90;;;;;;5125902;27;20248;-83
2022/12/30 11:49:32;;;;;;;8.45;2.50;;;22.80;99.90;;;;;;5122051;27;20649;-84
2022/12/30 11:52:12;;;;;;;11.40;2.55;;;22.80;99.90;;;;;;5126740;27;20308;-84
2022/12/30 11:54:47;;;;;;;7.68;2.40;;;22.80;99.90;;;;;;5131074;27;20228;-83
2022/12/30 11:57:30;;;;;;;8.18;3.08;;;22.80;99.90;;;;;;5112185;27;20199;-83
2022/12/30 12:00:03;;;;;;;9.55;2.72;;;22.80;99.90;;;;;;5122392;27;20293;-84
2022/12/30 12:02:36;;;;;;;12.32;2.65;;;22.70;99.90;;;;;;5132338;27;20599;-84
2022/12/30 12:05:26;;;;;;;11.65;2.45;;;22.70;99.90;;;;;;5129438;27;20216;-84
2022/12/30 12:08:03;;;;;;;9.48;2.45;;;22.70;99.90;;;;;;5123524;27;20264;-85
2022/12/30 12:10:37;;;;;;;9.93;2.47;;;22.70;99.90;;;;;;5119797;27;20305;-84
2022/12/30 12:13:15;;;;;;;7.97;2.65;;;22.60;99.90;;;;;;5128515;27;20556;-84
2022/12/30 12:15:48;;;;;;;9.43;2.65;;;22.60;99.90;;;;;;5116559;27;20225;-83
2022/12/30 12:18:25;;;;;;;8.13;2.42;;;22.60;99.90;;;;;;5126827;27;20213;-84
2022/12/30 12:21:06;;;;;;;10.88;2.58;;;22.50;99.90;;;;;;5123211;27;20710;-84
2022/12/30 12:23:49;;;;;;;8.23;2.45;;;22.50;99.90;;;;;;5132936;27;20652;-84
2022/12/30 12:26:23;;;;;;;10.32;2.78;;;22.50;99.90;;;;;;5137843;27;20273;-84
2022/12/30 12:28:57;;;;;;;7.57;2.42;;;22.40;99.90;;;;;;5140843;27;20249;-84
2022/12/30 12:31:52;;;;;;;6.20;2.08;;;22.50;99.90;;;;;;5124517;27;20209;-84
2022/12/30 12:34:40;;;;;;;9.10;2.38;;;22.40;99.90;;;;;;5125285;27;20571;-84
2022/12/30 12:37:24;;;;;;;11.18;2.60;;;22.40;99.90;;;;;;5132006;27;20194;-84
2022/12/30 12:40:11;;;;;;;9.23;2.42;;;22.30;99.90;;;;;;5132312;27;20288;-83
2022/12/30 12:42:52;;;;;;;14.27;2.83;;;22.30;99.90;;;;;;5128833;27;20205;-82
2022/12/30 12:45:44;;;;;;;12.38;2.60;;;22.40;99.90;;;;;;5124792;27;20673;-83
2022/12/30 12:48:40;;;;;;;10.68;2.28;;;22.40;99.90;;;;;;5115278;27;20603;-84
2022/12/30 12:51:27;;;;;;;10.70;2.30;;;22.30;99.90;;;;;;5127865;27;20213;-84
2022/12/30 12:54:34;;;;;;;9.75;2.42;;;22.30;99.90;;;;;;5129152;27;20295;-84
2022/12/30 12:57:18;;;;;;;11.43;2.40;;;22.40;99.90;;;;;;5101832;27;20292;-85
2022/12/30 13:00:07;;;;;;;7.93;1.98;;;22.30;99.90;;;;;;5118071;27;20304;-85
2022/12/30 13:03:17;;;;;;;10.32;2.38;;;22.30;99.90;;;;;;5122623;27;20209;-84
2022/12/30 13:05:59;;;;;;;10.38;2.42;;;22.30;99.90;;;;;;5121987;27;20300;-84
2022/12/30 13:08:45;;;;;;;8.82;2.13;;;22.30;99.90;;;;;;5126647;28;20252;-83
2022/12/30 13:11:20;;;;;;;11.02;2.35;;;22.20;99.90;;;;;;5132061;28;20350;-83
2022/12/30 13:14:02;;;;;;;8.40;2.40;;;22.20;99.90;;;;;;5123374;28;20276;-84
2022/12/30 13:16:36;;;;;;;8.20;1.95;;;22.20;99.90;;;;;;5123566;28;20268;-84
2022/12/30 13:19:08;;;;;;;9.00;1.98;;;22.20;99.90;;;;;;5130968;27;20628;-84
2022/12/30 13:21:39;;;;;;;8.63;2.17;;;22.20;99.90;;;;;;5132018;27;20203;-83
2022/12/30 13:24:13;;;;;;;8.73;2.33;;;22.20;99.90;;;;;;5138413;27;20309;-84
2022/12/30 13:26:45;;;;;;;9.55;1.98;;;22.20;99.90;;;;;;5127055;27;20787;-85
2022/12/30 13:29:18;;;;;;;9.85;2.35;;;22.20;99.90;;;;;;5129811;27;20194;-85
2022/12/30 13:31:57;;;;;;;12.60;2.67;;;22.20;99.90;;;;;;5134904;27;20236;-85
2022/12/30 13:34:35;;;;;;;7.95;1.92;;;22.20;99.90;;;;;;5133877;27;20186;-86
2022/12/30 13:37:13;;;;;;;8.25;2.30;;;22.10;99.90;;;;;;5133515;27;20268;-85
2022/12/30 13:39:52;;;;;;;7.68;1.85;;;22.20;99.90;;;;;;5137034;27;20197;-85
2022/12/30 13:42:55;;;;;;;10.43;2.17;;;22.20;99.90;;;;;;5133350;27;20599;-86
2022/12/30 13:45:30;;;;;;;7.78;1.83;;;22.20;99.90;;;;;;5128224;27;20201;-85
2022/12/30 13:48:06;;;;;;;8.98;2.00;;;22.20;99.90;;;;;;5127819;27;20219;-85
2022/12/30 13:50:38;;;;;;;7.25;2.00;;;22.20;99.90;;;;;;5134674;27;20192;-85
2022/12/30 13:53:27;;;;;;;8.30;1.95;;;22.20;99.90;;;;;;5131733;27;20567;-85
2022/12/30 13:55:58;;;;;;;7.35;1.90;;;22.20;99.90;;;;;;5122474;27;20193;-85
2022/12/30 13:58:33;;;;;;;9.80;1.92;;;22.20;99.90;;;;;;5126018;27;20217;-84
2022/12/30 14:01:35;;;;;;;6.75;1.80;;;22.20;99.90;;;;;;5130078;27;20755;-83
2022/12/30 14:04:34;;;;;;;9.30;1.90;;;22.20;99.90;;;;;;5114975;27;20652;-83
2022/12/30 14:07:05;;;;;;;9.80;2.45;;;22.20;99.90;;;;;;5114294;27;20242;-82
2022/12/30 14:09:36;;;;;;;8.48;2.20;;;22.20;99.90;;;;;;5115680;27;20870;-82
2022/12/30 14:12:32;;;;;;;9.23;1.90;;;22.20;99.90;;;;;;5112181;27;20214;-82
2022/12/30 14:15:46;;;;;;;9.82;1.80;;;22.20;99.90;;;;;;5108638;27;20232;-82
2022/12/30 14:18:29;;;;;;;6.80;1.75;;;22.10;99.90;;;;;;5110677;27;20193;-82
2022/12/30 14:21:04;;;;;;;8.48;2.05;;;22.10;99.90;;;;;;5110412;27;20197;-82
2022/12/30 14:23:46;;;;;;;8.18;2.33;;;22.10;99.90;;;;;;5110555;27;20213;-81